createdAt,value
2018-04-18T00:01:55.291Z,70
2018-04-18T00:07:22.599Z,71
2018-04-18T00:12:49.729Z,71
2018-04-18T00:18:18.108Z,71
2018-04-18T00:23:46.359Z,71
2018-04-18T00:29:13.541Z,71
2018-04-18T00:34:41.877Z,71
2018-04-18T00:40:09.094Z,71
2018-04-18T00:45:36.364Z,71
2018-04-18T00:51:04.680Z,71
2018-04-18T00:56:32.809Z,71
2018-04-18T01:02:01.066Z,71
2018-04-18T01:07:28.378Z,71
2018-04-18T01:12:56.598Z,71
2018-04-18T01:18:23.786Z,71
2018-04-18T01:23:50.985Z,71
2018-04-18T01:29:19.510Z,71
2018-04-18T01:34:46.616Z,71
2018-04-18T01:40:13.636Z,72
2018-04-18T01:45:42.098Z,72
2018-04-18T01:45:42.278Z,72
2018-04-18T01:51:09.026Z,72
2018-04-18T01:56:37.342Z,72
2018-04-18T02:02:04.451Z,72
2018-04-18T02:07:32.632Z,72
2018-04-18T02:12:59.852Z,72
2018-04-18T02:18:27.018Z,72
2018-04-18T02:23:54.215Z,72
2018-04-18T02:29:22.554Z,72
2018-04-18T02:34:49.582Z,72
2018-04-18T02:40:16.763Z,72
2018-04-18T02:45:45.021Z,72
2018-04-18T02:51:13.109Z,72
2018-04-18T02:56:41.250Z,72
2018-04-18T03:02:08.415Z,72
2018-04-18T03:07:36.565Z,72
2018-04-18T03:13:03.720Z,72
2018-04-18T03:18:31.908Z,72
2018-04-18T03:23:59.028Z,73
2018-04-18T03:29:27.479Z,73
2018-04-18T03:34:54.332Z,73
2018-04-18T03:40:21.421Z,73
2018-04-18T03:45:49.785Z,73
2018-04-18T03:51:17.760Z,73
2018-04-18T03:56:45.839Z,73
2018-04-18T04:02:13.976Z,73
2018-04-18T04:07:41.221Z,73
2018-04-18T04:13:08.259Z,73
2018-04-18T04:18:35.380Z,73
2018-04-18T04:24:02.488Z,73
2018-04-18T04:29:29.698Z,73
2018-04-18T04:34:56.714Z,73
2018-04-18T04:40:24.862Z,74
2018-04-18T04:45:53.051Z,74
2018-04-18T04:51:20.355Z,74
2018-04-18T04:56:48.362Z,74
2018-04-18T05:02:16.381Z,74
2018-04-18T05:07:43.478Z,74
2018-04-18T05:13:10.793Z,74
2018-04-18T05:18:38.816Z,74
2018-04-18T05:24:06.934Z,74
2018-04-18T05:29:35.052Z,74
2018-04-18T05:35:03.363Z,74
2018-04-18T05:40:31.411Z,74
2018-04-18T05:45:59.644Z,74
2018-04-18T05:51:27.771Z,74
2018-04-18T05:56:54.953Z,74
2018-04-18T06:02:22.307Z,74
2018-04-18T06:07:49.540Z,74
2018-04-18T06:13:16.612Z,75
2018-04-18T06:18:43.860Z,75
2018-04-18T06:24:11.451Z,75
2018-04-18T06:29:39.744Z,75
2018-04-18T06:35:07.929Z,75
2018-04-18T06:40:35.187Z,75
2018-04-18T06:46:02.532Z,75
2018-04-18T06:51:29.701Z,75
2018-04-18T06:56:57.103Z,75
2018-04-18T07:02:25.506Z,75
2018-04-18T07:07:54.045Z,74
2018-04-18T07:13:21.418Z,74
2018-04-18T07:18:49.918Z,74
2018-04-18T07:24:17.487Z,74
2018-04-18T07:29:44.824Z,74
2018-04-18T07:35:13.335Z,74
2018-04-18T07:40:41.888Z,74
2018-04-18T07:46:09.440Z,74
2018-04-18T07:51:37.026Z,74
2018-04-18T07:57:04.612Z,74
2018-04-18T08:02:32.486Z,74
2018-04-18T08:08:00.719Z,73
2018-04-18T08:13:29.537Z,73
2018-04-18T08:18:56.943Z,73
2018-04-18T08:24:24.586Z,73
2018-04-18T08:29:52.280Z,73
2018-04-18T08:35:21.297Z,73
2018-04-18T08:40:49.588Z,73
2018-04-18T08:46:17.256Z,73
2018-04-18T08:51:44.801Z,73
2018-04-18T08:57:12.583Z,72
2018-04-18T09:02:40.264Z,72
2018-04-18T09:08:07.887Z,72
2018-04-18T09:13:36.656Z,71
2018-04-18T09:19:04.377Z,71
2018-04-18T09:24:33.200Z,71
2018-04-18T09:30:00.786Z,71
2018-04-18T09:35:29.504Z,71
2018-04-18T09:40:57.398Z,71
2018-04-18T09:46:25.102Z,71
2018-04-18T09:51:52.843Z,71
2018-04-18T09:57:20.679Z,70
2018-04-18T10:02:49.530Z,70
2018-04-18T10:08:18.281Z,70
2018-04-18T10:13:46.131Z,70
2018-04-18T10:19:13.918Z,70
2018-04-18T10:24:42.000Z,70
2018-04-18T10:30:09.755Z,70
2018-04-18T10:35:38.501Z,70
2018-04-18T10:41:07.524Z,69
2018-04-18T10:46:35.259Z,69
2018-04-18T10:52:03.183Z,69
2018-04-18T10:57:31.011Z,69
2018-04-18T11:02:58.959Z,69
2018-04-18T11:08:28.012Z,69
2018-04-18T11:13:55.970Z,69
2018-04-18T11:19:24.743Z,69
2018-04-18T11:24:53.859Z,69
2018-04-18T11:30:21.649Z,68
2018-04-18T11:35:50.598Z,68
2018-04-18T11:41:19.573Z,68
2018-04-18T11:46:47.485Z,68
2018-04-18T11:52:15.516Z,68
2018-04-18T11:57:43.505Z,68
2018-04-18T12:03:11.479Z,68
2018-04-18T12:08:40.496Z,67
2018-04-18T12:14:08.426Z,67
2018-04-18T12:19:36.446Z,67
2018-04-18T12:25:05.497Z,67
2018-04-18T12:30:34.581Z,67
2018-04-18T12:36:03.573Z,67
2018-04-18T12:41:32.007Z,66
2018-04-18T12:46:59.681Z,66
2018-04-18T12:52:28.742Z,66
2018-04-18T12:57:57.373Z,66
2018-04-18T13:03:25.876Z,66
2018-04-18T13:08:54.334Z,66
2018-04-18T13:14:23.043Z,65
2018-04-18T13:19:51.283Z,65
2018-04-18T13:25:19.419Z,65
2018-04-18T13:30:47.351Z,65
2018-04-18T13:36:16.725Z,65
2018-04-18T13:41:44.731Z,65
2018-04-18T13:47:12.727Z,65
2018-04-18T13:52:41.771Z,65
2018-04-18T13:58:09.839Z,64
2018-04-18T14:03:37.932Z,64
2018-04-18T14:09:07.081Z,64
2018-04-18T14:14:36.192Z,64
2018-04-18T14:20:05.426Z,64
2018-04-18T14:25:34.510Z,64
2018-04-18T14:31:02.552Z,64
2018-04-18T14:36:30.822Z,64
2018-04-18T14:41:59.875Z,63
2018-04-18T14:47:28.946Z,63
2018-04-18T14:52:57.098Z,63
2018-04-18T14:58:26.194Z,63
2018-04-18T15:03:54.400Z,63
2018-04-18T15:09:23.521Z,62
2018-04-18T15:14:51.582Z,62
2018-04-18T15:20:20.800Z,62
2018-04-18T15:25:50.023Z,62
2018-04-18T15:31:18.151Z,62
2018-04-18T15:36:46.484Z,62
2018-04-18T15:42:15.404Z,62
2018-04-18T15:47:43.819Z,62
2018-04-18T15:53:11.686Z,62
2018-04-18T15:58:40.800Z,62
2018-04-18T16:04:08.951Z,62
2018-04-18T16:09:37.285Z,62
2018-04-18T16:15:05.230Z,61
2018-04-18T16:20:34.424Z,61
2018-04-18T16:26:03.433Z,61
2018-04-18T16:31:31.540Z,61
2018-04-18T16:36:59.675Z,61
2018-04-18T16:42:28.717Z,61
2018-04-18T16:47:56.745Z,61
2018-04-18T16:53:24.836Z,61
2018-04-18T16:58:53.081Z,61
2018-04-18T17:04:20.926Z,61
2018-04-18T17:09:49.936Z,61
2018-04-18T17:15:18.028Z,61
2018-04-18T17:20:46.084Z,61
2018-04-18T17:26:14.018Z,62
2018-04-18T17:31:41.975Z,62
2018-04-18T17:37:09.952Z,62
2018-04-18T17:42:37.980Z,62
2018-04-18T17:48:05.934Z,62
2018-04-18T17:53:34.863Z,62
2018-04-18T17:59:02.807Z,62
2018-04-18T18:04:30.763Z,63
2018-04-18T18:09:59.790Z,63
2018-04-18T18:15:27.658Z,63
2018-04-18T18:20:55.582Z,63
2018-04-18T18:26:23.494Z,64
2018-04-18T18:31:52.489Z,64
2018-04-18T18:37:21.389Z,64
2018-04-18T18:42:50.136Z,64
2018-04-18T18:48:18.348Z,64
2018-04-18T18:53:45.795Z,65
2018-04-18T18:59:13.601Z,65
2018-04-18T19:04:42.394Z,65
2018-04-18T19:10:10.339Z,65
2018-04-18T19:15:38.000Z,65
2018-04-18T19:21:05.703Z,66
2018-04-18T19:26:33.579Z,66
2018-04-18T19:32:02.537Z,66
2018-04-18T19:37:30.924Z,66
2018-04-18T19:42:58.944Z,66
2018-04-18T19:48:27.383Z,66
2018-04-18T19:53:56.192Z,67
2018-04-18T19:59:23.701Z,67
2018-04-18T20:04:52.454Z,67
2018-04-18T20:10:20.261Z,67
2018-04-18T20:15:48.663Z,67
2018-04-18T20:21:16.335Z,67
2018-04-18T20:26:43.937Z,67
2018-04-18T20:32:11.584Z,67
2018-04-18T20:37:40.395Z,68
2018-04-18T20:43:07.841Z,68
2018-04-18T20:48:36.459Z,68
2018-04-18T20:54:05.062Z,68
2018-04-18T20:59:32.703Z,68
2018-04-18T21:05:00.413Z,68
2018-04-18T21:10:29.077Z,68
2018-04-18T21:15:57.509Z,68
2018-04-18T21:21:25.498Z,69
2018-04-18T21:26:53.729Z,69
2018-04-18T21:32:21.273Z,69
2018-04-18T21:37:49.939Z,69
2018-04-18T21:43:17.390Z,69
2018-04-18T21:48:44.996Z,69
2018-04-18T21:54:12.518Z,69
2018-04-18T21:59:40.147Z,69
2018-04-18T22:05:07.640Z,69
2018-04-18T22:10:36.234Z,69
2018-04-18T22:16:04.728Z,70
2018-04-18T22:21:33.306Z,70
2018-04-18T22:27:00.825Z,70
2018-04-18T22:32:29.308Z,70
2018-04-18T22:37:56.823Z,70
2018-04-18T22:43:25.415Z,70
2018-04-18T22:48:53.230Z,70
2018-04-18T22:54:21.374Z,70
2018-04-18T22:59:48.864Z,70
2018-04-18T23:05:16.750Z,70
2018-04-18T23:10:44.870Z,70
2018-04-18T23:16:12.355Z,70
2018-04-18T23:21:39.801Z,70
2018-04-18T23:27:08.305Z,70
2018-04-18T23:32:35.681Z,70
2018-04-18T23:38:04.203Z,70
2018-04-18T23:43:32.694Z,71
2018-04-18T23:49:00.962Z,71
2018-04-18T23:54:29.383Z,71
2018-04-18T23:59:56.809Z,71
